createdAt,value
2023-02-27T00:01:15.713Z,100.00
2023-02-27T00:06:20.650Z,100.00
2023-02-27T00:11:27.901Z,100.00
2023-02-27T00:16:36.957Z,100.00
2023-02-27T00:21:44.649Z,100.00
2023-02-27T00:26:49.745Z,100.00
2023-02-27T00:32:00.052Z,100.00
2023-02-27T00:37:05.860Z,100.00
2023-02-27T00:42:11.252Z,100.00
2023-02-27T00:47:19.579Z,100.00
2023-02-27T00:52:24.626Z,100.00
2023-02-27T00:57:31.620Z,100.00
2023-02-27T01:02:39.328Z,100.00
2023-02-27T01:07:46.003Z,100.00
2023-02-27T01:12:52.386Z,100.00
2023-02-27T01:18:00.136Z,100.00
2023-02-27T01:23:07.252Z,100.00
2023-02-27T01:28:17.932Z,100.00
2023-02-27T01:33:25.494Z,100.00
2023-02-27T01:38:30.387Z,100.00
2023-02-27T01:43:35.475Z,100.00
2023-02-27T01:48:45.327Z,100.00
2023-02-27T01:53:53.874Z,100.00
2023-02-27T01:59:03.386Z,100.00
2023-02-27T02:04:18.719Z,100.00
2023-02-27T02:09:25.400Z,100.00
2023-02-27T02:14:30.578Z,100.00
2023-02-27T02:20:10.758Z,100.00
2023-02-27T02:25:57.031Z,100.00
2023-02-27T02:31:38.877Z,100.00
2023-02-27T02:37:26.423Z,100.00
2023-02-27T02:42:39.980Z,100.00
2023-02-27T02:47:57.503Z,100.00
2023-02-27T02:53:09.273Z,100.00
2023-02-27T02:58:24.605Z,100.00
2023-02-27T03:03:35.375Z,100.00
2023-02-27T03:08:47.668Z,100.00
2023-02-27T03:14:00.071Z,100.00
2023-02-27T03:19:13.387Z,100.00
2023-02-27T03:24:26.435Z,100.00
2023-02-27T03:29:43.703Z,100.00
2023-02-27T03:34:51.814Z,100.00
2023-02-27T03:40:04.978Z,100.00
2023-02-27T03:45:21.625Z,100.00
2023-02-27T03:50:29.956Z,100.00
2023-02-27T03:55:42.049Z,100.00
2023-02-27T04:00:50.210Z,100.00
2023-02-27T04:05:56.618Z,100.00
2023-02-27T04:11:33.720Z,100.00
2023-02-27T04:17:03.637Z,100.00
2023-02-27T04:22:23.242Z,100.00
2023-02-27T04:27:37.458Z,100.00
2023-02-27T04:32:52.590Z,100.00
2023-02-27T04:38:04.321Z,100.00
2023-02-27T04:43:15.424Z,100.00
2023-02-27T04:48:27.467Z,100.00
2023-02-27T04:53:41.416Z,100.00
2023-02-27T04:58:52.792Z,100.00
2023-02-27T05:04:03.747Z,100.00
2023-02-27T05:09:16.776Z,100.00
2023-02-27T05:14:25.865Z,100.00
2023-02-27T05:19:34.117Z,100.00
2023-02-27T05:24:50.514Z,100.00
2023-02-27T05:29:59.355Z,100.00
2023-02-27T05:35:14.201Z,100.00
2023-02-27T05:40:23.120Z,100.00
2023-02-27T05:45:35.088Z,100.00
2023-02-27T05:50:44.571Z,100.00
2023-02-27T05:55:52.188Z,100.00
2023-02-27T06:01:03.758Z,100.00
2023-02-27T06:06:16.669Z,100.00
2023-02-27T06:11:23.443Z,100.00
2023-02-27T06:16:28.796Z,100.00
2023-02-27T06:21:38.628Z,100.00
2023-02-27T06:26:43.862Z,100.00
2023-02-27T06:31:48.882Z,100.00
2023-02-27T06:36:56.890Z,100.00
2023-02-27T06:42:06.170Z,100.00
2023-02-27T06:47:12.961Z,100.00
2023-02-27T06:52:21.442Z,100.00
2023-02-27T06:57:26.389Z,100.00
2023-02-27T07:02:31.507Z,100.00
2023-02-27T07:07:43.393Z,100.00
2023-02-27T07:12:50.265Z,100.00
2023-02-27T07:17:59.558Z,100.00
2023-02-27T07:23:08.886Z,100.00
2023-02-27T07:28:14.078Z,100.00
2023-02-27T07:33:19.216Z,100.00
2023-02-27T07:38:33.351Z,100.00
2023-02-27T07:43:38.721Z,100.00
2023-02-27T07:48:44.372Z,100.00
2023-02-27T07:53:51.970Z,100.00
2023-02-27T07:59:03.432Z,100.00
2023-02-27T08:04:08.765Z,100.00
2023-02-27T08:09:16.643Z,100.00
2023-02-27T08:14:22.685Z,100.00
2023-02-27T08:19:27.965Z,100.00
2023-02-27T08:24:44.830Z,100.00
2023-02-27T08:29:49.846Z,95.76
2023-02-27T08:34:56.341Z,94.58
2023-02-27T08:40:15.383Z,96.43
2023-02-27T08:45:22.147Z,86.16
2023-02-27T08:50:29.804Z,86.69
2023-02-27T08:55:38.170Z,86.29
2023-02-27T09:00:44.289Z,85.20
2023-02-27T09:05:51.954Z,82.98
2023-02-27T09:11:03.171Z,88.81
2023-02-27T09:16:20.829Z,88.13
2023-02-27T09:21:27.879Z,91.06
2023-02-27T09:26:45.176Z,90.78
2023-02-27T09:37:28.276Z,92.66
2023-02-27T09:42:45.489Z,91.03
2023-02-27T09:47:54.231Z,92.02
2023-02-27T09:52:59.491Z,92.99
2023-02-27T09:58:14.010Z,92.35
2023-02-27T10:03:37.427Z,94.36
2023-02-27T10:08:51.961Z,96.15
2023-02-27T10:14:08.645Z,96.77
2023-02-27T10:19:20.101Z,95.30
2023-02-27T10:24:29.839Z,95.81
2023-02-27T10:29:39.928Z,96.50
2023-02-27T10:34:48.395Z,95.29
2023-02-27T10:40:00.378Z,96.25
2023-02-27T10:45:16.510Z,96.28
2023-02-27T10:50:52.187Z,96.26
2023-02-27T10:56:05.932Z,93.92
2023-02-27T11:01:18.667Z,91.97
2023-02-27T11:06:36.425Z,92.86
2023-02-27T11:11:41.477Z,92.39
2023-02-27T11:16:55.844Z,90.86
2023-02-27T11:22:08.376Z,93.69
2023-02-27T11:27:26.659Z,90.01
2023-02-27T11:32:44.291Z,89.52
2023-02-27T11:37:52.789Z,89.75
2023-02-27T11:43:01.298Z,86.75
2023-02-27T11:48:25.656Z,83.79
2023-02-27T11:54:09.589Z,85.74
2023-02-27T11:59:28.918Z,87.32
2023-02-27T12:04:46.213Z,85.65
2023-02-27T12:10:01.993Z,82.12
2023-02-27T12:15:20.377Z,84.18
2023-02-27T12:20:38.979Z,82.79
2023-02-27T12:25:54.926Z,83.24
2023-02-27T12:31:10.380Z,83.15
2023-02-27T12:36:18.650Z,84.90
2023-02-27T12:41:42.388Z,85.47
2023-02-27T12:46:55.536Z,84.48
2023-02-27T12:52:17.254Z,82.36
2023-02-27T12:57:34.605Z,82.20
2023-02-27T13:03:03.260Z,79.54
2023-02-27T13:08:38.475Z,79.37
2023-02-27T13:13:50.750Z,75.31
2023-02-27T13:19:01.364Z,73.96
2023-02-27T13:24:24.149Z,74.01
2023-02-27T13:29:37.590Z,71.02
2023-02-27T13:34:46.828Z,69.77
2023-02-27T13:40:38.881Z,69.15
2023-02-27T13:46:03.896Z,64.66
2023-02-27T13:51:13.946Z,65.92
2023-02-27T13:56:26.349Z,64.25
2023-02-27T14:01:37.065Z,65.68
2023-02-27T14:06:48.282Z,65.44
2023-02-27T14:12:00.003Z,67.40
2023-02-27T14:17:08.402Z,67.57
2023-02-27T14:22:44.957Z,70.94
2023-02-27T14:28:07.620Z,72.19
2023-02-27T14:33:39.476Z,71.96
2023-02-27T14:38:45.698Z,75.56
2023-02-27T14:43:58.258Z,78.23
2023-02-27T14:49:05.660Z,81.01
2023-02-27T14:54:17.185Z,84.71
2023-02-27T14:59:30.105Z,86.65
2023-02-27T15:04:36.416Z,90.25
2023-02-27T15:09:44.911Z,96.36
2023-02-27T15:14:54.995Z,100.00
2023-02-27T15:20:02.455Z,100.00
2023-02-27T15:25:08.531Z,100.00
2023-02-27T15:30:27.327Z,97.20
2023-02-27T15:35:39.378Z,96.44
2023-02-27T15:40:44.743Z,97.28
2023-02-27T15:45:55.199Z,97.64
2023-02-27T15:51:08.828Z,97.23
2023-02-27T15:56:17.345Z,97.29
2023-02-27T16:01:27.599Z,98.10
2023-02-27T16:06:37.099Z,98.01
2023-02-27T16:11:42.380Z,96.51
2023-02-27T16:16:57.221Z,97.69
2023-02-27T16:22:14.867Z,96.76
2023-02-27T16:27:22.695Z,96.22
2023-02-27T16:32:33.715Z,96.10
2023-02-27T16:37:43.227Z,97.01
2023-02-27T16:42:50.200Z,97.08
2023-02-27T16:47:59.820Z,96.86
2023-02-27T16:53:04.753Z,97.56
2023-02-27T16:58:16.803Z,96.61
2023-02-27T17:03:25.777Z,96.86
2023-02-27T17:08:30.744Z,97.34
2023-02-27T17:13:38.999Z,97.89
2023-02-27T17:18:48.964Z,97.74
2023-02-27T17:23:54.020Z,98.09
2023-02-27T17:28:58.902Z,98.67
2023-02-27T17:34:08.957Z,98.74
2023-02-27T17:39:18.434Z,97.80
2023-02-27T17:44:24.123Z,97.76
2023-02-27T17:49:31.643Z,98.90
2023-02-27T17:54:36.709Z,99.74
2023-02-27T17:59:43.464Z,100.00
2023-02-27T18:04:53.443Z,99.67
2023-02-27T18:09:58.438Z,99.92
2023-02-27T18:15:06.905Z,99.69
2023-02-27T18:20:19.921Z,100.00
2023-02-27T18:25:28.531Z,100.00
2023-02-27T18:30:37.230Z,99.91
2023-02-27T18:35:45.338Z,98.85
2023-02-27T18:40:50.327Z,99.48
2023-02-27T18:45:56.117Z,98.53
2023-02-27T18:51:12.440Z,98.59
2023-02-27T18:56:22.989Z,98.47
2023-02-27T19:01:29.943Z,98.41
2023-02-27T19:06:41.049Z,97.92
2023-02-27T19:11:47.303Z,97.89
2023-02-27T19:16:52.438Z,98.59
2023-02-27T19:22:00.477Z,98.74
2023-02-27T19:27:05.727Z,98.71
2023-02-27T19:32:11.140Z,98.43
2023-02-27T19:37:19.118Z,99.29
2023-02-27T19:42:27.401Z,99.99
2023-02-27T19:47:32.911Z,100.00
2023-02-27T19:52:41.060Z,100.00
2023-02-27T19:57:48.528Z,100.00
2023-02-27T20:02:53.771Z,100.00
2023-02-27T20:08:06.831Z,100.00
2023-02-27T20:13:14.722Z,100.00
2023-02-27T20:18:20.341Z,100.00
2023-02-27T20:23:28.394Z,100.00
2023-02-27T20:28:33.492Z,100.00
2023-02-27T20:33:38.952Z,100.00
2023-02-27T20:38:47.088Z,100.00
2023-02-27T20:43:52.848Z,100.00
2023-02-27T20:49:00.463Z,100.00
2023-02-27T20:54:10.451Z,100.00
2023-02-27T20:59:17.465Z,100.00
2023-02-27T21:04:25.853Z,100.00
2023-02-27T21:09:33.714Z,100.00
2023-02-27T21:14:39.421Z,100.00
2023-02-27T21:19:44.702Z,100.00
2023-02-27T21:24:53.812Z,100.00
2023-02-27T21:30:00.591Z,100.00
2023-02-27T21:35:05.625Z,100.00
2023-02-27T21:40:15.181Z,100.00
2023-02-27T21:45:20.146Z,100.00
2023-02-27T21:50:25.082Z,100.00
2023-02-27T21:55:32.961Z,100.00
2023-02-27T22:00:37.852Z,100.00
2023-02-27T22:05:43.604Z,100.00
2023-02-27T22:10:51.403Z,100.00
2023-02-27T22:15:56.930Z,100.00
2023-02-27T22:21:02.169Z,100.00
2023-02-27T22:26:11.444Z,100.00
2023-02-27T22:31:18.673Z,100.00
2023-02-27T22:36:29.202Z,100.00
2023-02-27T22:41:38.592Z,100.00
2023-02-27T22:46:45.473Z,100.00
2023-02-27T22:51:52.110Z,100.00
2023-02-27T22:56:59.912Z,100.00
2023-02-27T23:02:06.305Z,100.00
2023-02-27T23:07:11.258Z,100.00
2023-02-27T23:12:18.804Z,100.00
2023-02-27T23:17:23.983Z,100.00
2023-02-27T23:22:33.639Z,100.00
2023-02-27T23:27:41.164Z,100.00
2023-02-27T23:32:46.239Z,100.00
2023-02-27T23:37:51.183Z,100.00
2023-02-27T23:43:12.547Z,100.00
2023-02-27T23:48:17.625Z,100.00
2023-02-27T23:53:22.572Z,100.00
2023-02-27T23:58:30.085Z,100.00
